Time;durP1;ratioP1;P1;durP2;ratioP2;P2;SDS_P1;SDS_P2;PMS_P1;PMS_P2;Temp;Humidity;BMP_temperature;BMP_pressure;BME280_temperature;BME280_humidity;BME280_pressure;Samples;Min_cycle;Max_cycle;Signal;HPM_P1;HPM_P2
2023/11/05 00:00:30;;;;;;;3.15;1.05;;;13.70;68.10;15.30;96918.00;;;;5066489;28;20199;-79
2023/11/05 00:02:57;;;;;;;6.53;1.33;;;13.70;68.20;15.40;96919.00;;;;5065970;28;20219;-79
2023/11/05 00:05:24;;;;;;;3.83;1.30;;;13.70;68.30;15.40;96909.00;;;;5049767;28;20222;-79
2023/11/05 00:07:51;;;;;;;7.90;1.48;;;13.70;68.30;15.40;96912.00;;;;5049317;28;20196;-79
2023/11/05 00:10:18;;;;;;;4.85;1.20;;;13.70;68.40;15.40;96909.00;;;;5060731;28;20195;-79
2023/11/05 00:12:45;;;;;;;4.68;1.15;;;13.70;68.40;15.40;96908.00;;;;5049658;28;20199;-78
2023/11/05 00:15:14;;;;;;;3.28;0.93;;;13.80;68.50;15.50;96903.00;;;;5049388;28;20200;-78
2023/11/05 00:17:41;;;;;;;3.33;1.10;;;13.80;68.50;15.50;96894.00;;;;5052426;28;20555;-78
2023/11/05 00:22:35;;;;;;;6.30;0.93;;;13.80;68.40;15.50;96905.00;;;;5030355;22;20234;-79
2023/11/05 00:25:02;;;;;;;5.82;1.27;;;13.80;68.40;15.50;96899.00;;;;5012793;28;20260;-79
2023/11/05 00:27:29;;;;;;;6.30;1.17;;;13.90;68.50;15.60;96890.00;;;;5009791;28;20197;-78
2023/11/05 00:32:23;;;;;;;4.38;1.20;;;13.90;68.30;15.60;96887.00;;;;5046186;22;20232;-79
2023/11/05 00:34:50;;;;;;;5.80;1.13;;;13.90;68.30;15.60;96891.00;;;;5029929;28;20188;-78
2023/11/05 00:37:17;;;;;;;5.35;0.73;;;13.90;68.30;15.60;96884.00;;;;5028161;28;20204;-78
2023/11/05 00:39:44;;;;;;;6.85;1.42;;;14.00;68.30;15.60;96882.00;;;;5026752;28;20208;-78
2023/11/05 00:42:11;;;;;;;5.07;1.27;;;14.00;68.30;15.70;96881.00;;;;5028709;28;20285;-78
2023/11/05 00:44:38;;;;;;;2.00;0.85;;;14.00;68.30;15.70;96886.00;;;;5028780;28;20192;-79
2023/11/05 00:47:05;;;;;;;3.75;1.00;;;14.00;68.30;15.70;96885.00;;;;5027278;28;20246;-78
2023/11/05 00:49:33;;;;;;;4.10;0.95;;;14.00;68.20;15.70;96883.00;;;;5028565;28;20575;-78
2023/11/05 00:52:00;;;;;;;4.18;1.05;;;14.10;68.20;15.70;96877.00;;;;5042557;28;20207;-78
2023/11/05 00:54:28;;;;;;;5.18;0.98;;;14.10;68.10;15.70;96873.00;;;;5046367;28;20684;-79
2023/11/05 00:56:55;;;;;;;4.00;0.82;;;14.10;68.00;15.70;96875.00;;;;5024368;28;20567;-78
2023/11/05 00:59:22;;;;;;;3.20;1.33;;;14.10;67.90;15.70;96870.00;;;;5027179;28;20196;-78
2023/11/05 01:01:49;;;;;;;9.75;2.03;;;14.10;67.90;15.70;96866.00;;;;5028204;28;20215;-78
2023/11/05 01:04:15;;;;;;;3.55;1.13;;;14.10;67.90;15.70;96871.00;;;;5028143;28;20231;-78
2023/11/05 01:06:44;;;;;;;4.63;0.93;;;14.10;67.90;15.70;96864.00;;;;5006297;28;20204;-79
2023/11/05 01:09:11;;;;;;;5.65;0.95;;;14.10;67.80;15.70;96866.00;;;;5006026;28;20200;-79
2023/11/05 01:11:41;;;;;;;4.93;1.35;;;14.00;67.80;15.70;96870.00;;;;5007167;28;20212;-79
2023/11/05 01:14:08;;;;;;;4.35;0.88;;;14.00;67.80;15.70;96870.00;;;;5008209;28;20200;-79
2023/11/05 01:16:35;;;;;;;5.72;1.40;;;14.00;67.80;15.70;96860.00;;;;5007159;28;20578;-79
2023/11/05 01:19:02;;;;;;;5.82;1.08;;;14.10;67.90;15.70;96866.00;;;;5009093;28;20205;-78
2023/11/05 01:21:29;;;;;;;5.57;0.90;;;14.10;67.90;15.70;96865.00;;;;5009145;28;20250;-79
2023/11/05 01:23:57;;;;;;;4.95;0.82;;;14.00;67.80;15.70;96858.00;;;;5007066;28;20225;-78
2023/11/05 01:26:24;;;;;;;4.57;1.08;;;14.00;67.80;15.70;96854.00;;;;5009395;28;20201;-79
2023/11/05 01:28:51;;;;;;;6.05;1.40;;;14.00;67.80;15.70;96852.00;;;;5010349;28;20208;-78
2023/11/05 01:31:18;;;;;;;4.03;1.17;;;14.00;67.80;15.70;96850.00;;;;4989948;28;20293;-79
2023/11/05 01:33:45;;;;;;;2.65;0.77;;;14.00;67.80;15.70;96851.00;;;;5002999;28;20250;-79
2023/11/05 01:36:12;;;;;;;1.70;0.68;;;14.00;67.80;15.70;96841.00;;;;5008660;28;20220;-79
2023/11/05 01:38:39;;;;;;;4.75;0.68;;;14.00;67.80;15.70;96852.00;;;;5019312;22;20724;-78
2023/11/05 01:41:07;;;;;;;3.35;1.08;;;14.00;67.80;15.60;96845.00;;;;5012499;28;20292;-79
2023/11/05 01:46:01;;;;;;;3.85;1.08;;;14.00;67.80;15.70;96847.00;;;;5017765;22;20244;-78
2023/11/05 01:48:28;;;;;;;5.93;1.10;;;14.00;67.90;15.70;96848.00;;;;5012033;28;20197;-79
2023/11/05 01:50:57;;;;;;;8.65;1.42;;;14.00;68.00;15.70;96848.00;;;;5012831;28;20197;-78
2023/11/05 01:53:26;;;;;;;2.53;1.10;;;14.00;68.00;15.70;96843.00;;;;5010975;28;20227;-79
2023/11/05 01:55:53;;;;;;;4.38;0.70;;;14.00;68.00;15.70;96840.00;;;;5012119;28;20200;-78
2023/11/05 01:58:23;;;;;;;3.45;0.73;;;14.00;68.00;15.70;96841.00;;;;5012694;28;20232;-77
2023/11/05 02:00:50;;;;;;;2.88;0.90;;;14.00;68.10;15.70;96842.00;;;;5002597;28;20236;-78
2023/11/05 02:03:18;;;;;;;3.60;0.98;;;14.00;68.10;15.80;96841.00;;;;5012615;28;20924;-78
2023/11/05 02:05:46;;;;;;;3.58;0.80;;;14.00;68.10;15.80;96840.00;;;;5012056;28;20246;-78
2023/11/05 02:08:13;;;;;;;5.85;1.13;;;14.10;68.10;15.80;96830.00;;;;5008811;28;20231;-78
2023/11/05 02:10:40;;;;;;;4.35;0.80;;;14.10;68.10;15.80;96828.00;;;;5010889;28;20318;-78
2023/11/05 02:13:08;;;;;;;5.18;0.85;;;14.10;68.10;15.80;96826.00;;;;5011352;28;20224;-78
2023/11/05 02:15:36;;;;;;;6.22;1.58;;;14.10;68.10;15.80;96825.00;;;;5009140;28;20194;-78
2023/11/05 02:18:03;;;;;;;1.92;0.70;;;14.10;68.20;15.90;96834.00;;;;5011551;28;20200;-79
2023/11/05 02:20:30;;;;;;;4.30;0.75;;;14.10;68.10;15.90;96832.00;;;;5011779;28;20197;-77
2023/11/05 02:23:00;;;;;;;3.72;0.70;;;14.10;68.10;15.90;96828.00;;;;5010909;28;20711;-77
2023/11/05 02:25:28;;;;;;;3.97;0.85;;;14.20;68.20;15.90;96826.00;;;;5009709;28;20588;-77
2023/11/05 02:27:55;;;;;;;4.68;0.80;;;14.20;68.20;15.90;96828.00;;;;5009347;28;20197;-77
2023/11/05 02:30:23;;;;;;;2.90;0.68;;;14.20;68.20;15.90;96828.00;;;;5006304;28;20590;-77
2023/11/05 02:32:50;;;;;;;2.83;0.98;;;14.20;68.30;15.90;96820.00;;;;5009013;28;20197;-76
2023/11/05 02:35:18;;;;;;;3.70;1.02;;;14.20;68.30;15.90;96823.00;;;;5009323;28;20323;-77
2023/11/05 02:37:45;;;;;;;2.97;1.02;;;14.20;68.30;15.90;96823.00;;;;5008930;28;20197;-77
2023/11/05 02:40:13;;;;;;;2.33;0.77;;;14.20;68.30;15.90;96820.00;;;;5011219;28;20197;-77
2023/11/05 02:42:41;;;;;;;3.45;0.63;;;14.20;68.30;15.90;96821.00;;;;5010388;28;21150;-77
2023/11/05 02:45:09;;;;;;;2.67;0.57;;;14.20;68.30;15.90;96819.00;;;;5008237;28;20237;-77
2023/11/05 02:47:36;;;;;;;2.95;0.82;;;14.20;68.40;15.90;96822.00;;;;5010122;28;20223;-78
2023/11/05 02:50:04;;;;;;;2.97;0.95;;;14.30;68.50;15.90;96820.00;;;;5010179;28;20223;-77
2023/11/05 02:52:31;;;;;;;5.20;0.88;;;14.30;68.50;15.90;96826.00;;;;5010454;28;20204;-77
2023/11/05 02:55:00;;;;;;;5.00;0.70;;;14.30;68.50;15.90;96822.00;;;;5009049;28;20766;-77
2023/11/05 02:57:27;;;;;;;4.05;1.05;;;14.30;68.50;15.90;96819.00;;;;5006806;28;20201;-77
2023/11/05 02:59:55;;;;;;;2.97;0.70;;;14.30;68.60;15.90;96819.00;;;;5009502;28;20201;-77
2023/11/05 03:02:23;;;;;;;3.08;0.90;;;14.30;68.60;15.90;96816.00;;;;5008620;28;20193;-78
2023/11/05 03:04:50;;;;;;;4.15;0.85;;;14.30;68.60;16.00;96808.00;;;;5009376;28;20235;-78
2023/11/05 03:07:17;;;;;;;3.60;0.80;;;14.30;68.60;16.00;96812.00;;;;5006676;28;20201;-78
2023/11/05 03:09:45;;;;;;;3.97;0.85;;;14.30;68.70;16.00;96813.00;;;;5009833;28;20287;-78
2023/11/05 03:12:12;;;;;;;4.03;0.80;;;14.30;69.10;16.00;96808.00;;;;5009775;28;20197;-78
2023/11/05 03:14:39;;;;;;;4.07;0.70;;;14.30;68.70;16.00;96801.00;;;;5006853;28;20193;-78
2023/11/05 03:17:08;;;;;;;1.63;0.52;;;14.30;68.80;16.00;96801.00;;;;5007680;28;20204;-78
2023/11/05 03:19:35;;;;;;;2.63;0.60;;;14.30;68.70;16.00;96792.00;;;;5008963;28;20196;-78
2023/11/05 03:22:02;;;;;;;3.22;0.85;;;14.30;68.80;16.10;96793.00;;;;5009619;28;20292;-78
2023/11/05 03:24:29;;;;;;;2.17;0.73;;;14.40;68.90;16.10;96801.00;;;;5005902;28;20223;-78
2023/11/05 03:26:56;;;;;;;1.58;0.57;;;14.40;68.90;16.10;96792.00;;;;5009534;28;20196;-78
2023/11/05 03:29:24;;;;;;;1.85;0.50;;;14.40;68.90;16.10;96792.00;;;;5009116;28;20687;-78
2023/11/05 03:31:51;;;;;;;3.53;0.90;;;14.40;68.80;16.10;96792.00;;;;5005449;28;20721;-78
2023/11/05 03:34:20;;;;;;;1.23;0.63;;;14.40;68.80;16.00;96787.00;;;;5008003;28;20208;-79
2023/11/05 03:36:47;;;;;;;2.65;0.77;;;14.40;68.80;16.10;96793.00;;;;5008577;28;20204;-77
2023/11/05 03:39:14;;;;;;;2.88;0.98;;;14.40;68.80;16.10;96792.00;;;;5008989;28;20197;-78
2023/11/05 03:41:41;;;;;;;4.72;1.20;;;14.40;68.80;16.10;96796.00;;;;5007372;28;20284;-78
2023/11/05 03:44:09;;;;;;;4.90;1.10;;;14.40;68.80;16.10;96802.00;;;;5007235;28;20578;-78
2023/11/05 03:46:39;;;;;;;3.35;0.77;;;14.40;68.80;16.10;96798.00;;;;5006865;28;20263;-78
2023/11/05 03:49:06;;;;;;;6.90;1.05;;;14.40;68.80;16.10;96803.00;;;;5008214;28;20204;-78
2023/11/05 03:51:34;;;;;;;2.88;0.95;;;14.40;68.90;16.10;96798.00;;;;5008698;28;20193;-78
2023/11/05 03:54:02;;;;;;;2.55;1.08;;;14.40;68.90;16.10;96807.00;;;;5009027;28;20204;-78
2023/11/05 03:56:29;;;;;;;3.47;1.10;;;14.40;68.90;16.10;96806.00;;;;5008816;28;20211;-78
2023/11/05 03:58:56;;;;;;;3.55;0.80;;;14.40;68.90;16.10;96807.00;;;;5007187;28;20212;-78
2023/11/05 04:01:23;;;;;;;1.83;0.85;;;14.40;69.60;16.10;96816.00;;;;5007785;28;20196;-78
2023/11/05 04:03:50;;;;;;;6.88;1.65;;;14.50;69.60;16.10;96808.00;;;;5006831;28;20239;-78
2023/11/05 04:06:18;;;;;;;2.92;0.80;;;14.40;68.90;16.10;96802.00;;;;5004697;28;20706;-78
2023/11/05 04:08:47;;;;;;;2.90;0.88;;;14.40;68.90;16.10;96808.00;;;;5006700;28;20199;-78
2023/11/05 04:11:14;;;;;;;2.42;0.82;;;14.40;68.90;16.10;96811.00;;;;5008552;28;20552;-78
2023/11/05 04:13:44;;;;;;;2.47;0.77;;;14.50;68.90;16.10;96809.00;;;;5008081;28;21884;-78
2023/11/05 04:16:11;;;;;;;4.32;1.10;;;14.40;68.90;16.10;96803.00;;;;5003645;28;20323;-78
2023/11/05 04:18:41;;;;;;;3.78;0.95;;;14.50;69.00;16.20;96813.00;;;;5003107;28;20685;-78
2023/11/05 04:21:08;;;;;;;5.72;0.95;;;14.50;68.90;16.20;96806.00;;;;5008105;28;20209;-78
2023/11/05 04:23:35;;;;;;;3.72;0.63;;;14.40;68.90;16.20;96810.00;;;;5008240;28;20231;-78
2023/11/05 04:26:05;;;;;;;4.80;0.95;;;14.50;69.00;16.20;96810.00;;;;5007049;28;20208;-78
2023/11/05 04:28:32;;;;;;;3.13;0.90;;;14.50;69.00;16.20;96807.00;;;;5007489;28;20607;-78
2023/11/05 04:30:59;;;;;;;1.98;0.73;;;14.50;69.00;16.20;96812.00;;;;5007318;28;20212;-78
2023/11/05 04:33:26;;;;;;;2.75;0.95;;;14.50;69.00;16.20;96805.00;;;;5003385;28;20207;-78
2023/11/05 04:35:53;;;;;;;1.27;0.50;;;14.50;69.00;16.20;96808.00;;;;5007330;28;20569;-78
2023/11/05 04:38:20;;;;;;;1.40;0.50;;;14.50;69.00;16.20;96813.00;;;;5011910;28;20193;-78
2023/11/05 04:40:47;;;;;;;2.55;0.73;;;14.50;69.00;16.20;96808.00;;;;5007466;28;20204;-78
2023/11/05 04:43:15;;;;;;;2.00;0.60;;;14.50;69.00;16.20;96811.00;;;;5007063;28;20209;-78
2023/11/05 04:45:43;;;;;;;1.90;0.68;;;14.50;69.00;16.20;96812.00;;;;5005474;28;20656;-78
2023/11/05 04:48:10;;;;;;;3.38;0.70;;;14.50;69.00;16.20;96806.00;;;;5008593;28;20205;-78
2023/11/05 04:50:38;;;;;;;1.77;0.52;;;14.50;69.00;16.30;96811.00;;;;5002260;28;20231;-78
2023/11/05 04:53:04;;;;;;;2.53;0.77;;;14.50;69.00;16.30;96811.00;;;;5008376;28;20193;-78
2023/11/05 04:55:31;;;;;;;1.33;0.40;;;14.50;69.00;16.30;96813.00;;;;5004975;28;20201;-79
2023/11/05 04:58:01;;;;;;;2.33;0.65;;;14.60;69.00;16.30;96811.00;;;;5010151;28;20662;-78
2023/11/05 05:00:29;;;;;;;1.73;0.50;;;14.60;69.00;16.30;96812.00;;;;5008811;28;20291;-78
2023/11/05 05:02:57;;;;;;;1.73;0.70;;;14.50;68.90;16.30;96816.00;;;;5007793;28;20628;-78
2023/11/05 05:05:24;;;;;;;3.05;0.60;;;14.60;69.00;16.30;96813.00;;;;5004668;28;20221;-78
2023/11/05 05:07:51;;;;;;;4.22;1.08;;;14.60;69.00;16.30;96809.00;;;;5004244;28;20936;-78
2023/11/05 05:10:18;;;;;;;1.17;0.52;;;14.60;68.90;16.30;96809.00;;;;5007971;28;20200;-78
2023/11/05 05:12:45;;;;;;;4.35;1.02;;;14.60;68.90;16.30;96822.00;;;;5008258;28;20196;-78
2023/11/05 05:15:12;;;;;;;1.40;0.60;;;14.60;69.00;16.30;96820.00;;;;5006017;28;20654;-78
2023/11/05 05:17:40;;;;;;;2.22;0.50;;;14.60;68.90;16.30;96826.00;;;;5006977;28;20259;-77
2023/11/05 05:20:10;;;;;;;1.15;0.50;;;14.60;69.00;16.30;96833.00;;;;5006789;28;20228;-78
2023/11/05 05:22:37;;;;;;;5.35;1.02;;;14.60;69.00;16.30;96829.00;;;;5009725;28;20201;-78
2023/11/05 05:25:05;;;;;;;1.30;0.50;;;14.60;68.90;16.30;96833.00;;;;5004522;28;20232;-78
2023/11/05 05:27:32;;;;;;;2.53;0.70;;;14.60;69.00;16.40;96831.00;;;;5005340;28;20263;-78
2023/11/05 05:30:00;;;;;;;3.25;0.60;;;14.60;69.00;16.40;96837.00;;;;5005337;28;20209;-78
2023/11/05 05:32:27;;;;;;;1.85;0.73;;;14.60;68.90;16.40;96834.00;;;;5005906;28;20201;-78
2023/11/05 05:34:55;;;;;;;1.83;0.70;;;14.60;68.90;16.30;96840.00;;;;5007499;28;20205;-78
2023/11/05 05:37:22;;;;;;;1.45;0.30;;;14.60;68.90;16.40;96847.00;;;;5007268;28;20570;-78
2023/11/05 05:39:49;;;;;;;4.85;0.60;;;14.60;69.00;16.40;96841.00;;;;5005826;28;20201;-78
2023/11/05 05:42:16;;;;;;;1.42;0.55;;;14.60;68.90;16.40;96845.00;;;;5007214;28;20206;-78
2023/11/05 05:44:44;;;;;;;1.63;0.50;;;14.60;68.90;16.40;96850.00;;;;5004926;28;20232;-78
2023/11/05 05:47:11;;;;;;;1.45;0.47;;;14.60;69.00;16.40;96852.00;;;;5014444;28;20193;-78
2023/11/05 05:49:39;;;;;;;2.22;0.90;;;14.60;69.00;16.40;96845.00;;;;5007561;28;20193;-78
2023/11/05 05:52:07;;;;;;;2.95;0.82;;;14.60;69.00;16.40;96852.00;;;;5010160;28;20211;-78
2023/11/05 05:54:34;;;;;;;2.45;0.50;;;14.60;68.90;16.40;96847.00;;;;5005606;28;20208;-79
2023/11/05 05:57:01;;;;;;;2.00;0.45;;;14.70;69.00;16.40;96858.00;;;;5004778;28;20669;-78
2023/11/05 05:59:28;;;;;;;2.15;0.60;;;14.60;69.00;16.40;96857.00;;;;5005755;28;20750;-78
2023/11/05 06:01:55;;;;;;;4.28;1.10;;;14.70;69.10;16.40;96857.00;;;;5005965;28;20208;-78
2023/11/05 06:04:22;;;;;;;1.10;0.50;;;14.70;69.10;16.40;96862.00;;;;5003718;28;20225;-78
2023/11/05 06:06:49;;;;;;;2.50;0.55;;;14.70;69.10;16.50;96859.00;;;;5004137;28;20204;-78
2023/11/05 06:09:22;;;;;;;4.03;0.50;;;14.70;69.10;16.40;96856.00;;;;5004347;28;20209;-78
2023/11/05 06:11:49;;;;;;;2.00;0.73;;;14.70;69.10;16.50;96863.00;;;;5007106;28;20193;-78
2023/11/05 06:14:16;;;;;;;4.18;0.82;;;14.70;69.00;16.50;96862.00;;;;5005565;28;20847;-78
2023/11/05 06:16:44;;;;;;;0.95;0.50;;;14.70;69.00;16.50;96867.00;;;;5002735;28;20200;-78
2023/11/05 06:19:11;;;;;;;2.58;0.70;;;14.70;69.00;16.50;96871.00;;;;5006074;28;20278;-79
2023/11/05 06:21:38;;;;;;;0.82;0.45;;;14.70;69.00;16.50;96875.00;;;;5005480;28;20244;-78
2023/11/05 06:24:06;;;;;;;5.78;0.95;;;14.70;69.70;16.50;96874.00;;;;5005791;28;20224;-78
2023/11/05 06:26:35;;;;;;;2.17;0.57;;;14.70;69.00;16.40;96878.00;;;;5003594;28;20212;-78
2023/11/05 06:29:02;;;;;;;4.07;1.17;;;14.70;69.00;16.50;96873.00;;;;5006950;28;20208;-78
2023/11/05 06:31:29;;;;;;;0.95;0.43;;;14.70;69.00;16.50;96879.00;;;;5009195;28;20209;-78
2023/11/05 06:33:56;;;;;;;1.88;0.70;;;14.70;69.00;16.50;96877.00;;;;5010623;28;20189;-79
2023/11/05 06:36:24;;;;;;;1.27;0.75;;;14.70;69.00;16.50;96884.00;;;;5010471;28;20189;-78
2023/11/05 06:38:51;;;;;;;1.67;0.80;;;14.80;69.10;16.50;96888.00;;;;5010353;28;20193;-78
2023/11/05 06:41:18;;;;;;;1.98;0.50;;;14.70;69.00;16.50;96888.00;;;;5009966;28;20204;-78
2023/11/05 06:43:46;;;;;;;2.13;0.50;;;14.70;69.00;16.50;96894.00;;;;5009014;28;20204;-78
2023/11/05 06:46:13;;;;;;;2.75;0.70;;;14.70;69.00;16.50;96897.00;;;;5010278;28;20589;-78
2023/11/05 06:48:41;;;;;;;1.63;0.52;;;14.70;69.10;16.50;96902.00;;;;5010325;28;20243;-78
2023/11/05 06:51:09;;;;;;;3.00;0.75;;;14.70;69.00;16.50;96902.00;;;;5009209;28;20193;-78
2023/11/05 06:53:36;;;;;;;2.72;0.80;;;14.70;69.10;16.50;96903.00;;;;5017022;28;20744;-78
2023/11/05 06:56:03;;;;;;;2.42;0.60;;;14.70;69.80;16.50;96911.00;;;;5011837;28;20201;-78
2023/11/05 06:58:30;;;;;;;2.20;0.88;;;14.80;69.10;16.50;96916.00;;;;5008834;28;20197;-78
2023/11/05 07:00:58;;;;;;;1.25;0.77;;;14.80;69.10;16.50;96915.00;;;;5010762;28;20204;-78
2023/11/05 07:03:26;;;;;;;1.42;0.70;;;14.80;69.20;16.50;96926.00;;;;5005250;28;20635;-78
2023/11/05 07:05:53;;;;;;;3.20;1.10;;;14.80;69.20;16.50;96929.00;;;;5005393;28;20689;-78
2023/11/05 07:08:20;;;;;;;2.33;0.68;;;14.80;69.20;16.50;96930.00;;;;5008865;28;20197;-78
2023/11/05 07:10:47;;;;;;;1.20;0.50;;;14.80;69.20;16.50;96938.00;;;;5009880;28;20197;-78
2023/11/05 07:13:14;;;;;;;3.28;0.75;;;14.80;69.20;16.50;96935.00;;;;5010374;28;20196;-79
2023/11/05 07:15:40;;;;;;;2.20;0.65;;;14.80;69.20;16.50;96938.00;;;;5010124;28;20203;-78
2023/11/05 07:18:09;;;;;;;1.90;0.80;;;14.80;69.20;16.50;96945.00;;;;5010128;28;20208;-79
2023/11/05 07:20:37;;;;;;;1.63;0.65;;;14.80;69.20;16.50;96944.00;;;;4995111;28;20198;-78
2023/11/05 07:23:04;;;;;;;2.08;0.82;;;14.80;69.10;16.50;96950.00;;;;5007155;28;20197;-78
2023/11/05 07:25:31;;;;;;;2.28;0.80;;;14.80;69.20;16.50;96957.00;;;;5010798;28;20574;-77
2023/11/05 07:27:59;;;;;;;2.03;0.52;;;14.80;69.30;16.60;96958.00;;;;5008985;28;20204;-78
2023/11/05 07:30:26;;;;;;;1.77;0.68;;;14.80;69.30;16.60;96965.00;;;;5009880;28;20232;-78
2023/11/05 07:32:53;;;;;;;0.68;0.40;;;14.80;69.30;16.60;96962.00;;;;5009707;28;20200;-77
2023/11/05 07:35:23;;;;;;;2.42;1.02;;;14.80;69.40;16.60;96967.00;;;;5009126;28;20203;-77
2023/11/05 07:37:50;;;;;;;2.08;0.77;;;14.80;69.40;16.60;96966.00;;;;5008525;28;20201;-77
2023/11/05 07:40:17;;;;;;;4.72;1.10;;;14.90;69.50;16.60;96977.00;;;;5004541;28;20204;-78
2023/11/05 07:42:44;;;;;;;1.65;0.95;;;14.90;69.50;16.70;96982.00;;;;5001690;28;20201;-78
2023/11/05 07:45:11;;;;;;;4.22;1.00;;;14.90;69.50;16.70;96982.00;;;;5007099;28;20278;-78
2023/11/05 07:47:39;;;;;;;1.88;0.73;;;14.90;69.60;16.70;96976.00;;;;5007461;28;20213;-78
2023/11/05 07:50:10;;;;;;;4.22;0.80;;;14.90;69.60;16.70;96977.00;;;;5007499;28;20201;-77
2023/11/05 07:52:42;;;;;;;1.33;0.70;;;15.00;69.70;16.70;96969.00;;;;5009665;28;20189;-78
2023/11/05 07:55:10;;;;;;;1.40;0.70;;;15.00;69.60;16.80;96985.00;;;;5007284;28;20197;-77
2023/11/05 07:57:38;;;;;;;2.90;0.95;;;15.00;69.50;16.80;96987.00;;;;5014570;28;20204;-77
2023/11/05 08:00:08;;;;;;;1.90;0.73;;;15.00;69.60;16.80;96993.00;;;;5008662;28;20560;-77
2023/11/05 08:02:35;;;;;;;2.28;0.77;;;15.10;69.60;16.90;96997.00;;;;5004213;28;20324;-77
2023/11/05 08:05:02;;;;;;;2.90;0.90;;;15.10;69.70;16.90;97003.00;;;;5008747;28;20233;-77
2023/11/05 08:07:30;;;;;;;1.65;0.80;;;15.10;69.70;16.90;97018.00;;;;5009883;28;20197;-77
2023/11/05 08:09:58;;;;;;;2.85;1.08;;;15.20;69.70;16.90;97007.00;;;;5008046;28;20196;-78
2023/11/05 08:12:26;;;;;;;3.35;1.10;;;15.20;69.70;17.00;97018.00;;;;5003634;28;20206;-77
2023/11/05 08:14:53;;;;;;;4.35;1.23;;;15.20;69.70;17.00;97022.00;;;;5007615;28;20560;-78
2023/11/05 08:17:21;;;;;;;2.47;1.20;;;15.20;69.80;17.00;97028.00;;;;5009125;28;20200;-78
2023/11/05 08:19:48;;;;;;;3.42;1.05;;;15.20;69.70;17.00;97026.00;;;;5012777;28;20251;-78
2023/11/05 08:22:15;;;;;;;2.92;0.80;;;15.30;69.70;17.00;97033.00;;;;5007369;28;20201;-78
2023/11/05 08:24:42;;;;;;;2.55;0.82;;;15.30;69.70;17.10;97037.00;;;;5004645;28;20671;-78
2023/11/05 08:27:11;;;;;;;3.05;0.90;;;15.30;69.70;17.10;97037.00;;;;5009659;28;20209;-77
2023/11/05 08:29:39;;;;;;;2.17;1.02;;;15.30;69.60;17.10;97044.00;;;;5007658;28;20204;-77
2023/11/05 08:32:07;;;;;;;6.50;1.38;;;15.40;69.60;17.10;97043.00;;;;5008540;28;20201;-78
2023/11/05 08:34:34;;;;;;;2.10;1.00;;;15.40;69.50;17.10;97052.00;;;;5008962;28;20263;-78
2023/11/05 08:37:01;;;;;;;2.83;1.45;;;15.40;69.50;17.10;97055.00;;;;5006891;28;20216;-77
2023/11/05 08:39:30;;;;;;;2.58;1.10;;;15.40;69.50;17.10;97061.00;;;;5008677;28;20193;-78
2023/11/05 08:41:58;;;;;;;1.98;0.98;;;15.40;69.40;17.10;97065.00;;;;5009120;28;20200;-78
2023/11/05 08:44:26;;;;;;;2.70;1.45;;;15.40;69.40;17.10;97073.00;;;;5008460;28;20231;-77
2023/11/05 08:46:53;;;;;;;3.90;1.35;;;15.40;69.30;17.10;97074.00;;;;5004846;28;20268;-77
2023/11/05 08:49:20;;;;;;;4.13;1.48;;;15.50;69.40;17.10;97085.00;;;;5007067;28;20566;-78
2023/11/05 08:51:47;;;;;;;2.88;1.27;;;15.50;69.40;17.10;97091.00;;;;5005244;28;20197;-78
2023/11/05 08:54:14;;;;;;;3.83;1.40;;;15.50;69.40;17.20;97085.00;;;;5007670;28;20592;-77
2023/11/05 08:56:41;;;;;;;3.05;1.20;;;15.50;69.50;17.20;97103.00;;;;5007389;28;20401;-79
2023/11/05 08:59:09;;;;;;;3.20;1.27;;;15.50;69.60;17.20;97099.00;;;;5007432;28;20212;-78
2023/11/05 09:01:37;;;;;;;3.85;1.38;;;15.60;69.80;17.30;97113.00;;;;5006860;28;20251;-79
2023/11/05 09:04:05;;;;;;;2.67;1.52;;;15.60;69.80;17.30;97115.00;;;;5003610;28;20208;-77
2023/11/05 09:06:32;;;;;;;5.50;1.75;;;15.60;69.80;17.40;97121.00;;;;5005763;28;20694;-78
2023/11/05 09:08:59;;;;;;;4.60;2.08;;;15.70;69.70;17.40;97123.00;;;;5008034;28;20208;-78
2023/11/05 09:11:26;;;;;;;3.10;1.77;;;15.70;69.60;17.40;97121.00;;;;4998736;28;20590;-77
2023/11/05 09:13:53;;;;;;;5.07;2.20;;;15.70;69.70;17.40;97126.00;;;;5001554;28;20203;-77
2023/11/05 09:16:20;;;;;;;3.63;2.00;;;15.70;69.60;17.50;97137.00;;;;5005819;28;20211;-77
2023/11/05 09:18:48;;;;;;;5.47;2.10;;;15.80;69.60;17.50;97142.00;;;;5006978;28;20209;-77
2023/11/05 09:21:15;;;;;;;3.63;2.00;;;15.80;69.60;17.50;97146.00;;;;5005179;28;20208;-77
2023/11/05 09:23:42;;;;;;;4.00;1.70;;;15.80;69.60;17.60;97146.00;;;;5000217;28;20276;-78
2023/11/05 09:26:09;;;;;;;4.75;1.75;;;15.80;69.60;17.60;97149.00;;;;5003774;28;20231;-78
2023/11/05 09:28:36;;;;;;;2.78;1.65;;;15.90;69.50;17.60;97144.00;;;;5006874;28;20566;-78
2023/11/05 09:31:04;;;;;;;2.63;1.60;;;15.90;69.50;17.60;97160.00;;;;5007111;28;20201;-78
2023/11/05 09:33:30;;;;;;;3.92;2.00;;;15.90;69.40;17.70;97160.00;;;;5005318;28;20205;-77
2023/11/05 09:35:59;;;;;;;2.65;1.95;;;16.00;69.40;17.70;97168.00;;;;4998296;28;20675;-77
2023/11/05 09:38:26;;;;;;;5.57;2.33;;;16.00;69.30;17.70;97173.00;;;;5005091;28;20201;-78
2023/11/05 09:40:53;;;;;;;4.43;1.90;;;16.00;69.20;17.70;97178.00;;;;5006945;28;20559;-77
2023/11/05 09:43:20;;;;;;;5.95;2.22;;;16.00;69.20;17.70;97191.00;;;;5007163;28;20212;-76
2023/11/05 09:45:50;;;;;;;5.05;2.35;;;16.10;69.20;17.70;97187.00;;;;5006872;28;20529;-77
2023/11/05 09:48:18;;;;;;;4.75;1.60;;;16.10;69.00;17.70;97191.00;;;;5005871;28;20564;-77
2023/11/05 09:50:45;;;;;;;2.55;1.13;;;16.10;68.80;17.70;97198.00;;;;5007381;28;20193;-78
2023/11/05 09:53:16;;;;;;;3.70;1.73;;;16.10;68.70;17.70;97203.00;;;;5008022;28;20213;-78
2023/11/05 09:55:47;;;;;;;2.45;1.25;;;16.00;68.50;17.60;97211.00;;;;5007167;28;20208;-78
2023/11/05 09:58:15;;;;;;;4.32;1.40;;;16.00;68.30;17.60;97213.00;;;;5006136;28;20204;-78
2023/11/05 10:00:42;;;;;;;3.05;1.25;;;16.00;68.40;17.60;97216.00;;;;5006723;28;20205;-78
2023/11/05 10:03:12;;;;;;;3.80;1.63;;;16.00;68.50;17.60;97227.00;;;;5006414;28;20197;-79
2023/11/05 10:05:42;;;;;;;3.42;1.88;;;16.00;68.50;17.60;97223.00;;;;5018268;28;20225;-79
2023/11/05 10:08:10;;;;;;;2.55;1.27;;;16.00;68.50;17.60;97231.00;;;;5008026;28;20275;-78
2023/11/05 10:10:42;;;;;;;5.93;2.40;;;15.90;68.50;17.50;97240.00;;;;5010751;28;20213;-77
2023/11/05 10:13:09;;;;;;;3.85;1.75;;;15.90;68.50;17.50;97240.00;;;;5008828;28;20201;-78
2023/11/05 10:15:39;;;;;;;3.15;1.55;;;15.90;68.50;17.50;97244.00;;;;5010952;28;20201;-78
2023/11/05 10:18:07;;;;;;;6.05;2.13;;;15.90;68.50;17.50;97241.00;;;;5010351;28;20189;-78
2023/11/05 10:20:49;;;;;;;4.50;2.00;;;15.90;68.50;17.40;97245.00;;;;5009459;28;20205;-77
2023/11/05 10:23:16;;;;;;;4.10;2.15;;;15.80;68.70;17.50;97253.00;;;;5011304;28;20247;-77
2023/11/05 10:25:50;;;;;;;6.05;1.90;;;15.80;68.70;17.40;97254.00;;;;5010090;28;20220;-77
2023/11/05 10:28:17;;;;;;;4.30;2.33;;;15.80;68.70;17.40;97258.00;;;;5009165;28;20197;-78
2023/11/05 10:30:48;;;;;;;3.35;2.25;;;15.80;68.70;17.40;97270.00;;;;5006432;28;20193;-76
2023/11/05 10:33:15;;;;;;;2.58;2.38;;;15.80;68.80;17.40;97271.00;;;;5004368;28;20197;-77
2023/11/05 10:35:44;;;;;;;4.15;2.08;;;15.80;68.80;17.40;97276.00;;;;5011121;28;20255;-77
2023/11/05 10:38:14;;;;;;;4.00;2.10;;;15.70;68.80;17.40;97274.00;;;;5009027;28;20224;-77
2023/11/05 10:40:41;;;;;;;2.80;1.80;;;15.70;68.80;17.40;97293.00;;;;5012613;28;20201;-77
2023/11/05 10:43:11;;;;;;;3.90;2.20;;;15.70;68.90;17.30;97290.00;;;;5013172;28;20571;-77
2023/11/05 10:45:39;;;;;;;3.55;2.05;;;15.70;68.90;17.30;97290.00;;;;5008382;28;20233;-77
2023/11/05 10:48:09;;;;;;;2.25;1.80;;;15.70;69.00;17.30;97308.00;;;;5009310;28;20678;-77
2023/11/05 10:50:39;;;;;;;2.15;1.48;;;15.70;69.10;17.30;97310.00;;;;5011722;28;20549;-77
2023/11/05 10:53:08;;;;;;;3.67;1.35;;;15.70;69.10;17.30;97331.00;;;;5009941;28;20232;-77
2023/11/05 10:55:36;;;;;;;2.67;1.30;;;15.70;69.10;17.30;97337.00;;;;5006974;28;20659;-77
2023/11/05 10:58:06;;;;;;;1.92;1.05;;;15.70;69.30;17.30;97345.00;;;;5007930;28;20209;-77
2023/11/05 11:00:50;;;;;;;1.70;1.10;;;15.70;69.40;17.20;97346.00;;;;5008351;28;20204;-77
2023/11/05 11:03:20;;;;;;;1.42;0.70;;;15.70;69.40;17.30;97364.00;;;;5005367;28;20205;-77